sensor_id;sensor_type;location;lat;lon;timestamp;pressure;altitude;pressure_sealevel;temperature;humidity
56182;BME280;51963;46.052;14.544;2023-02-28T00:00:09;98968.69;;;-0.60;100.00
56182;BME280;51963;46.052;14.544;2023-02-28T00:02:36;98998.63;;;-0.41;100.00
56182;BME280;51963;46.052;14.544;2023-02-28T00:05:04;98996.03;;;-0.41;100.00
56182;BME280;51963;46.052;14.544;2023-02-28T00:07:30;98995.31;;;-0.43;100.00
56182;BME280;51963;46.052;14.544;2023-02-28T00:09:57;98969.81;;;-0.64;100.00
56182;BME280;51963;46.052;14.544;2023-02-28T00:12:23;99004.97;;;-0.46;100.00
56182;BME280;51963;46.052;14.544;2023-02-28T00:14:49;98998.31;;;-0.50;100.00
56182;BME280;51963;46.052;14.544;2023-02-28T00:17:15;98990.72;;;-0.53;100.00
56182;BME280;51963;46.052;14.544;2023-02-28T00:19:41;99004.03;;;-0.45;100.00
56182;BME280;51963;46.052;14.544;2023-02-28T00:22:07;99010.38;;;-0.49;100.00
56182;BME280;51963;46.052;14.544;2023-02-28T00:24:33;98999.06;;;-0.48;100.00
56182;BME280;51963;46.052;14.544;2023-02-28T00:26:58;99008.50;;;-0.47;100.00
56182;BME280;51963;46.052;14.544;2023-02-28T00:29:24;98983.75;;;-0.65;100.00
56182;BME280;51963;46.052;14.544;2023-02-28T00:31:50;98992.91;;;-0.60;100.00
56182;BME280;51963;46.052;14.544;2023-02-28T00:34:16;98997.91;;;-0.56;100.00
56182;BME280;51963;46.052;14.544;2023-02-28T00:36:42;98991.97;;;-0.58;100.00
56182;BME280;51963;46.052;14.544;2023-02-28T00:39:10;99006.03;;;-0.48;100.00
56182;BME280;51963;46.052;14.544;2023-02-28T00:41:36;99011.84;;;-0.45;100.00
56182;BME280;51963;46.052;14.544;2023-02-28T00:44:02;99018.69;;;-0.43;100.00
56182;BME280;51963;46.052;14.544;2023-02-28T00:46:31;98997.06;;;-0.57;100.00
56182;BME280;51963;46.052;14.544;2023-02-28T00:48:57;98970.56;;;-0.75;100.00
56182;BME280;51963;46.052;14.544;2023-02-28T00:51:23;99006.63;;;-0.45;100.00
56182;BME280;51963;46.052;14.544;2023-02-28T00:53:48;98995.94;;;-0.53;100.00
56182;BME280;51963;46.052;14.544;2023-02-28T00:56:18;99012.78;;;-0.46;100.00
56182;BME280;51963;46.052;14.544;2023-02-28T00:58:47;99005.19;;;-0.49;100.00
56182;BME280;51963;46.052;14.544;2023-02-28T01:01:13;99005.19;;;-0.49;100.00
56182;BME280;51963;46.052;14.544;2023-02-28T01:03:38;99019.94;;;-0.36;100.00
56182;BME280;51963;46.052;14.544;2023-02-28T01:06:04;99017.56;;;-0.39;100.00
56182;BME280;51963;46.052;14.544;2023-02-28T01:08:41;99020.47;;;-0.44;100.00
56182;BME280;51963;46.052;14.544;2023-02-28T01:11:11;99007.03;;;-0.51;100.00
56182;BME280;51963;46.052;14.544;2023-02-28T01:13:39;99019.44;;;-0.41;100.00
56182;BME280;51963;46.052;14.544;2023-02-28T01:16:05;99016.00;;;-0.29;100.00
56182;BME280;51963;46.052;14.544;2023-02-28T01:18:31;99013.50;;;-0.43;100.00
56182;BME280;51963;46.052;14.544;2023-02-28T01:20:57;99012.56;;;-0.42;100.00
56182;BME280;51963;46.052;14.544;2023-02-28T01:23:23;99016.00;;;-0.42;100.00
56182;BME280;51963;46.052;14.544;2023-02-28T01:25:52;99010.81;;;-0.42;100.00
56182;BME280;51963;46.052;14.544;2023-02-28T01:28:18;99015.16;;;-0.42;100.00
56182;BME280;51963;46.052;14.544;2023-02-28T01:30:48;99011.03;;;-0.32;100.00
56182;BME280;51963;46.052;14.544;2023-02-28T01:33:14;99009.88;;;-0.41;100.00
56182;BME280;51963;46.052;14.544;2023-02-28T01:35:40;98989.78;;;-0.52;100.00
56182;BME280;51963;46.052;14.544;2023-02-28T01:38:07;99008.31;;;-0.43;100.00
56182;BME280;51963;46.052;14.544;2023-02-28T01:40:33;99003.31;;;-0.47;100.00
56182;BME280;51963;46.052;14.544;2023-02-28T01:42:59;99004.78;;;-0.42;100.00
56182;BME280;51963;46.052;14.544;2023-02-28T01:45:31;98989.78;;;-0.52;100.00
56182;BME280;51963;46.052;14.544;2023-02-28T01:48:02;98985.75;;;-0.56;100.00
56182;BME280;51963;46.052;14.544;2023-02-28T01:50:32;99004.03;;;-0.45;100.00
56182;BME280;51963;46.052;14.544;2023-02-28T01:53:02;99011.84;;;-0.45;100.00
56182;BME280;51963;46.052;14.544;2023-02-28T01:55:31;98998.84;;;-0.45;100.00
56182;BME280;51963;46.052;14.544;2023-02-28T01:58:00;99011.63;;;-0.41;100.00
56182;BME280;51963;46.052;14.544;2023-02-28T02:00:32;99004.16;;;-0.46;100.00
56182;BME280;51963;46.052;14.544;2023-02-28T02:03:06;99007.56;;;-0.46;100.00
56182;BME280;51963;46.052;14.544;2023-02-28T02:05:36;99003.44;;;-0.48;100.00
56182;BME280;51963;46.052;14.544;2023-02-28T02:08:05;99004.03;;;-0.45;100.00
56182;BME280;51963;46.052;14.544;2023-02-28T02:10:52;99009.34;;;-0.46;100.00
56182;BME280;51963;46.052;14.544;2023-02-28T02:13:55;99003.09;;;-0.43;100.00
56182;BME280;51963;46.052;14.544;2023-02-28T02:38:08;99011.63;;;-0.41;100.00
56182;BME280;51963;46.052;14.544;2023-02-28T02:43:50;99001.25;;;-0.41;100.00
56182;BME280;51963;46.052;14.544;2023-02-28T02:46:32;99002.19;;;-0.42;100.00
56182;BME280;51963;46.052;14.544;2023-02-28T02:49:00;99006.44;;;-0.41;100.00
56182;BME280;51963;46.052;14.544;2023-02-28T02:51:31;98976.28;;;-0.57;100.00
56182;BME280;51963;46.052;14.544;2023-02-28T02:54:11;98986.25;;;-0.51;100.00
56182;BME280;51963;46.052;14.544;2023-02-28T02:56:43;99007.69;;;-0.47;100.00
56182;BME280;51963;46.052;14.544;2023-02-28T02:59:13;99006.63;;;-0.45;100.00
56182;BME280;51963;46.052;14.544;2023-02-28T03:01:40;99010.50;;;-0.37;100.00
56182;BME280;51963;46.052;14.544;2023-02-28T03:04:14;99017.75;;;-0.42;100.00
56182;BME280;51963;46.052;14.544;2023-02-28T03:06:42;99010.81;;;-0.42;100.00
56182;BME280;51963;46.052;14.544;2023-02-28T03:09:08;98999.56;;;-0.42;100.00
56182;BME280;51963;46.052;14.544;2023-02-28T03:11:35;99003.31;;;-0.47;100.00
56182;BME280;51963;46.052;14.544;2023-02-28T03:14:14;99009.25;;;-0.45;100.00
56182;BME280;51963;46.052;14.544;2023-02-28T03:28:15;99008.13;;;-0.27;100.00
56182;BME280;51963;46.052;14.544;2023-02-28T03:30:52;99004.47;;;-0.38;99.92
56182;BME280;51963;46.052;14.544;2023-02-28T03:33:44;99012.69;;;-0.31;100.00
56182;BME280;51963;46.052;14.544;2023-02-28T03:36:17;99004.47;;;-0.38;100.00
56182;BME280;51963;46.052;14.544;2023-02-28T03:38:49;98997.19;;;-0.46;100.00
56182;BME280;51963;46.052;14.544;2023-02-28T03:41:22;99011.22;;;-0.35;100.00
56182;BME280;51963;46.052;14.544;2023-02-28T03:47:02;99003.34;;;-0.34;100.00
56182;BME280;51963;46.052;14.544;2023-02-28T03:49:57;98988.03;;;-0.38;100.00
56182;BME280;51963;46.052;14.544;2023-02-28T03:52:23;98975.66;;;-0.48;100.00
56182;BME280;51963;46.052;14.544;2023-02-28T03:54:53;98990.03;;;-0.42;100.00
56182;BME280;51963;46.052;14.544;2023-02-28T03:57:49;99000.34;;;-0.27;100.00
56182;BME280;51963;46.052;14.544;2023-02-28T04:00:21;98985.13;;;-0.47;100.00
56182;BME280;51963;46.052;14.544;2023-02-28T04:02:54;99015.59;;;-0.36;99.37
56182;BME280;51963;46.052;14.544;2023-02-28T04:05:21;99012.47;;;-0.28;99.29
56182;BME280;51963;46.052;14.544;2023-02-28T04:07:47;99012.88;;;-0.34;99.34
56182;BME280;51963;46.052;14.544;2023-02-28T04:10:14;99011.22;;;-0.35;100.00
56182;BME280;51963;46.052;14.544;2023-02-28T04:12:40;99016.41;;;-0.35;100.00
56182;BME280;51963;46.052;14.544;2023-02-28T04:15:07;98982.94;;;-0.53;99.08
56182;BME280;51963;46.052;14.544;2023-02-28T04:17:33;99011.13;;;-0.34;99.09
56182;BME280;51963;46.052;14.544;2023-02-28T04:19:58;99018.28;;;-0.37;99.20
56182;BME280;51963;46.052;14.544;2023-02-28T04:22:24;99012.69;;;-0.31;99.22
56182;BME280;51963;46.052;14.544;2023-02-28T04:24:52;99019.53;;;-0.30;99.59
56182;BME280;51963;46.052;14.544;2023-02-28T04:27:21;99008.53;;;-0.34;99.83
56182;BME280;51963;46.052;14.544;2023-02-28T04:29:46;99012.28;;;-0.38;100.00
56182;BME280;51963;46.052;14.544;2023-02-28T04:32:12;99026.81;;;-0.35;99.40
56182;BME280;51963;46.052;14.544;2023-02-28T04:34:38;99017.34;;;-0.36;98.70
56182;BME280;51963;46.052;14.544;2023-02-28T04:37:04;99023.28;;;-0.34;98.57
56182;BME280;51963;46.052;14.544;2023-02-28T04:39:30;99009.25;;;-0.45;99.24
56182;BME280;51963;46.052;14.544;2023-02-28T04:41:55;99022.75;;;-0.39;98.92
56182;BME280;51963;46.052;14.544;2023-02-28T04:44:22;99032.00;;;-0.35;100.00
56182;BME280;51963;46.052;14.544;2023-02-28T04:46:49;99021.72;;;-0.37;99.70
56182;BME280;51963;46.052;14.544;2023-02-28T04:49:15;99034.13;;;-0.27;99.53
56182;BME280;51963;46.052;14.544;2023-02-28T04:51:41;99021.81;;;-0.38;99.12
56182;BME280;51963;46.052;14.544;2023-02-28T04:54:08;99018.59;;;-0.42;99.22
56182;BME280;51963;46.052;14.544;2023-02-28T04:56:33;98997.59;;;-0.52;98.78
56182;BME280;51963;46.052;14.544;2023-02-28T04:58:59;99011.22;;;-0.35;100.00
56182;BME280;51963;46.052;14.544;2023-02-28T05:01:33;99016.63;;;-0.38;99.85
56182;BME280;51963;46.052;14.544;2023-02-28T05:04:01;99029.75;;;-0.27;100.00
56182;BME280;51963;46.052;14.544;2023-02-28T05:06:30;99029.22;;;-0.32;100.00
56182;BME280;51963;46.052;14.544;2023-02-28T05:08:57;99036.00;;;-0.30;100.00
56182;BME280;51963;46.052;14.544;2023-02-28T05:11:31;99027.66;;;-0.35;100.00
56182;BME280;51963;46.052;14.544;2023-02-28T05:14:05;99035.66;;;-0.25;100.00
56182;BME280;51963;46.052;14.544;2023-02-28T05:16:31;99011.44;;;-0.38;100.00
56182;BME280;51963;46.052;14.544;2023-02-28T05:18:57;99030.16;;;-0.33;100.00
56182;BME280;51963;46.052;14.544;2023-02-28T05:23:49;99040.13;;;-0.27;100.00
56182;BME280;51963;46.052;14.544;2023-02-28T05:26:15;99024.94;;;-0.33;100.00
56182;BME280;51963;46.052;14.544;2023-02-28T05:28:40;99030.47;;;-0.38;100.00
56182;BME280;51963;46.052;14.544;2023-02-28T05:31:08;99036.00;;;-0.30;100.00
56182;BME280;51963;46.052;14.544;2023-02-28T05:33:36;99020.88;;;-0.37;100.00
56182;BME280;51963;46.052;14.544;2023-02-28T05:36:02;99032.75;;;-0.33;100.00
56182;BME280;51963;46.052;14.544;2023-02-28T05:38:28;99036.81;;;-0.29;100.00
56182;BME280;51963;46.052;14.544;2023-02-28T05:40:56;99020.69;;;-0.34;100.00
56182;BME280;51963;46.052;14.544;2023-02-28T05:43:22;99032.34;;;-0.27;100.00
56182;BME280;51963;46.052;14.544;2023-02-28T05:45:48;99024.13;;;-0.34;100.00
56182;BME280;51963;46.052;14.544;2023-02-28T05:48:14;99039.72;;;-0.21;100.00
56182;BME280;51963;46.052;14.544;2023-02-28T05:50:40;99044.91;;;-0.21;100.00
56182;BME280;51963;46.052;14.544;2023-02-28T05:53:06;99051.78;;;-0.20;100.00
56182;BME280;51963;46.052;14.544;2023-02-28T05:55:31;99048.25;;;-0.19;100.00
56182;BME280;51963;46.052;14.544;2023-02-28T05:57:57;99033.38;;;-0.30;100.00
56182;BME280;51963;46.052;14.544;2023-02-28T06:00:23;99043.66;;;-0.28;100.00
56182;BME280;51963;46.052;14.544;2023-02-28T06:02:49;99048.47;;;-0.22;100.00
56182;BME280;51963;46.052;14.544;2023-02-28T06:05:16;99056.16;;;-0.20;100.00
56182;BME280;51963;46.052;14.544;2023-02-28T06:07:43;99056.56;;;-0.13;100.00
56182;BME280;51963;46.052;14.544;2023-02-28T06:10:10;99065.22;;;-0.13;100.00
56182;BME280;51963;46.052;14.544;2023-02-28T06:12:37;99062.81;;;-0.16;100.00
56182;BME280;51963;46.052;14.544;2023-02-28T06:15:03;99068.03;;;-0.16;100.00
56182;BME280;51963;46.052;14.544;2023-02-28T06:17:29;99059.06;;;-0.25;100.00
56182;BME280;51963;46.052;14.544;2023-02-28T06:19:57;99069.25;;;-0.22;100.00
56182;BME280;51963;46.052;14.544;2023-02-28T06:22:23;99072.56;;;-0.20;100.00
56182;BME280;51963;46.052;14.544;2023-02-28T06:24:49;99069.25;;;-0.22;100.00
56182;BME280;51963;46.052;14.544;2023-02-28T06:27:15;99087.78;;;-0.13;100.00
56182;BME280;51963;46.052;14.544;2023-02-28T06:29:40;99077.56;;;-0.17;100.00
56182;BME280;51963;46.052;14.544;2023-02-28T06:32:07;99066.13;;;-0.27;100.00
56182;BME280;51963;46.052;14.544;2023-02-28T06:34:33;99080.09;;;-0.15;100.00
56182;BME280;51963;46.052;14.544;2023-02-28T06:37:02;99076.31;;;-0.24;100.00
56182;BME280;51963;46.052;14.544;2023-02-28T06:39:29;99062.59;;;-0.26;100.00
56182;BME280;51963;46.052;14.544;2023-02-28T06:41:55;99080.28;;;-0.18;100.00
56182;BME280;51963;46.052;14.544;2023-02-28T06:44:22;99101.28;;;-0.08;100.00
56182;BME280;51963;46.052;14.544;2023-02-28T06:46:50;99102.97;;;-0.07;100.00
56182;BME280;51963;46.052;14.544;2023-02-28T06:49:16;99111.50;;;-0.05;100.00
56182;BME280;51963;46.052;14.544;2023-02-28T06:51:43;99113.72;;;0.01;100.00
56182;BME280;51963;46.052;14.544;2023-02-28T06:54:13;99109.78;;;0.08;100.00
56182;BME280;51963;46.052;14.544;2023-02-28T06:56:39;99104.41;;;-0.03;100.00
56182;BME280;51963;46.052;14.544;2023-02-28T06:59:06;99096.41;;;-0.13;100.00
56182;BME280;51963;46.052;14.544;2023-02-28T07:01:32;99112.94;;;-0.01;100.00
56182;BME280;51963;46.052;14.544;2023-02-28T07:04:00;99120.38;;;0.05;100.00
56182;BME280;51963;46.052;14.544;2023-02-28T07:06:27;99110.91;;;0.04;100.00
56182;BME280;51963;46.052;14.544;2023-02-28T07:08:53;99085.28;;;-0.15;100.00
56182;BME280;51963;46.052;14.544;2023-02-28T07:11:22;99129.94;;;0.05;100.00
56182;BME280;51963;46.052;14.544;2023-02-28T07:13:49;99132.03;;;0.12;100.00
56182;BME280;51963;46.052;14.544;2023-02-28T07:16:16;99132.44;;;0.06;100.00
56182;BME280;51963;46.052;14.544;2023-02-28T07:18:42;99125.16;;;0.11;100.00
56182;BME280;51963;46.052;14.544;2023-02-28T07:21:09;99127.84;;;0.10;100.00
56182;BME280;51963;46.052;14.544;2023-02-28T07:23:36;99132.34;;;0.21;100.00
56182;BME280;51963;46.052;14.544;2023-02-28T07:26:04;99116.97;;;0.18;100.00
56182;BME280;51963;46.052;14.544;2023-02-28T07:28:30;99138.47;;;0.33;100.00
56182;BME280;51963;46.052;14.544;2023-02-28T07:30:56;99134.22;;;0.19;100.00
56182;BME280;51963;46.052;14.544;2023-02-28T07:33:22;99144.50;;;0.20;100.00
56182;BME280;51963;46.052;14.544;2023-02-28T07:35:49;99139.22;;;0.22;100.00
56182;BME280;51963;46.052;14.544;2023-02-28T07:38:15;99144.44;;;0.22;100.00
56182;BME280;51963;46.052;14.544;2023-02-28T07:40:41;99141.09;;;0.20;100.00
56182;BME280;51963;46.052;14.544;2023-02-28T07:43:06;99118.31;;;0.10;100.00
56182;BME280;51963;46.052;14.544;2023-02-28T07:45:32;99134.44;;;0.16;100.00
56182;BME280;51963;46.052;14.544;2023-02-28T07:48:00;99149.09;;;0.17;100.00
56182;BME280;51963;46.052;14.544;2023-02-28T07:50:26;99146.91;;;0.23;100.00
56182;BME280;51963;46.052;14.544;2023-02-28T07:52:58;99150.69;;;0.32;100.00
56182;BME280;51963;46.052;14.544;2023-02-28T07:55:24;99138.59;;;0.31;100.00
56182;BME280;51963;46.052;14.544;2023-02-28T07:57:49;99148.28;;;0.29;100.00
56182;BME280;51963;46.052;14.544;2023-02-28T08:00:15;99146.69;;;0.26;100.00
56182;BME280;51963;46.052;14.544;2023-02-28T08:02:41;99152.03;;;0.25;100.00
56182;BME280;51963;46.052;14.544;2023-02-28T08:05:07;99160.16;;;0.33;100.00
56182;BME280;51963;46.052;14.544;2023-02-28T08:07:33;99147.63;;;0.25;100.00
56182;BME280;51963;46.052;14.544;2023-02-28T08:09:59;99151.09;;;0.26;100.00
56182;BME280;51963;46.052;14.544;2023-02-28T08:12:25;99148.38;;;0.14;100.00
56182;BME280;51963;46.052;14.544;2023-02-28T08:14:51;99160.22;;;0.19;100.00
56182;BME280;51963;46.052;14.544;2023-02-28T08:17:17;99160.97;;;0.34;100.00
56182;BME280;51963;46.052;14.544;2023-02-28T08:19:45;99146.28;;;0.20;100.00
56182;BME280;51963;46.052;14.544;2023-02-28T08:22:11;99158.59;;;0.43;100.00
56182;BME280;51963;46.052;14.544;2023-02-28T08:24:37;99154.50;;;0.26;100.00
56182;BME280;51963;46.052;14.544;2023-02-28T08:27:03;99172.75;;;0.39;100.00
56182;BME280;51963;46.052;14.544;2023-02-28T08:29:28;99180.03;;;0.34;100.00
56182;BME280;51963;46.052;14.544;2023-02-28T08:31:55;99172.09;;;0.36;100.00
56182;BME280;51963;46.052;14.544;2023-02-28T08:34:22;99170.66;;;0.57;100.00
56182;BME280;51963;46.052;14.544;2023-02-28T08:36:48;99169.72;;;0.46;100.00
56182;BME280;51963;46.052;14.544;2023-02-28T08:39:14;99177.75;;;0.68;100.00
56182;BME280;51963;46.052;14.544;2023-02-28T08:41:41;99178.03;;;0.64;100.00
56182;BME280;51963;46.052;14.544;2023-02-28T08:44:07;99183.56;;;0.59;100.00
56182;BME280;51963;46.052;14.544;2023-02-28T08:46:33;99171.19;;;0.50;100.00
56182;BME280;51963;46.052;14.544;2023-02-28T08:48:59;99168.69;;;0.48;100.00
56182;BME280;51963;46.052;14.544;2023-02-28T08:51:27;99170.88;;;0.41;100.00
56182;BME280;51963;46.052;14.544;2023-02-28T08:53:54;99185.63;;;0.28;100.00
56182;BME280;51963;46.052;14.544;2023-02-28T08:56:20;99183.69;;;0.45;100.00
56182;BME280;51963;46.052;14.544;2023-02-28T08:58:48;99188.66;;;0.48;100.00
56182;BME280;51963;46.052;14.544;2023-02-28T09:01:22;99181.69;;;0.61;100.00
56182;BME280;51963;46.052;14.544;2023-02-28T09:03:49;99188.38;;;0.65;100.00
56182;BME280;51963;46.052;14.544;2023-02-28T09:06:18;99183.38;;;0.62;100.00
56182;BME280;51963;46.052;14.544;2023-02-28T09:08:44;99187.31;;;0.55;100.00
56182;BME280;51963;46.052;14.544;2023-02-28T09:11:10;99187.09;;;0.45;100.00
56182;BME280;51963;46.052;14.544;2023-02-28T09:13:37;99183.75;;;0.43;100.00
56182;BME280;51963;46.052;14.544;2023-02-28T09:16:05;99190.75;;;0.68;100.00
56182;BME280;51963;46.052;14.544;2023-02-28T09:18:33;99191.91;;;0.64;100.00
56182;BME280;51963;46.052;14.544;2023-02-28T09:21:10;99190.44;;;0.60;100.00
56182;BME280;51963;46.052;14.544;2023-02-28T09:23:42;99192.53;;;0.81;100.00
56182;BME280;51963;46.052;14.544;2023-02-28T09:26:13;99190.53;;;0.84;100.00
56182;BME280;51963;46.052;14.544;2023-02-28T09:28:40;99192.94;;;0.75;100.00
56182;BME280;51963;46.052;14.544;2023-02-28T09:31:13;99194.94;;;0.84;100.00
56182;BME280;51963;46.052;14.544;2023-02-28T09:33:42;99190.03;;;0.92;99.74
56182;BME280;51963;46.052;14.544;2023-02-28T09:36:08;99195.22;;;0.79;100.00
56182;BME280;51963;46.052;14.544;2023-02-28T09:38:34;99196.91;;;0.93;99.90
56182;BME280;51963;46.052;14.544;2023-02-28T09:41:04;99196.78;;;0.95;99.25
56182;BME280;51963;46.052;14.544;2023-02-28T09:43:38;99193.34;;;0.94;100.00
56182;BME280;51963;46.052;14.544;2023-02-28T09:46:18;99197.41;;;0.85;99.53
56182;BME280;51963;46.052;14.544;2023-02-28T09:48:49;99193.88;;;0.99;98.69
56182;BME280;51963;46.052;14.544;2023-02-28T09:51:48;99188.53;;;1.14;98.92
56182;BME280;51963;46.052;14.544;2023-02-28T09:54:21;99192.47;;;1.20;98.38
56182;BME280;51963;46.052;14.544;2023-02-28T09:56:51;99201.00;;;1.35;98.16
56182;BME280;51963;46.052;14.544;2023-02-28T10:04:46;99189.72;;;1.34;97.21
56182;BME280;51963;46.052;14.544;2023-02-28T10:08:00;99191.16;;;1.51;97.31
56182;BME280;51963;46.052;14.544;2023-02-28T10:10:33;99189.69;;;1.47;98.30
56182;BME280;51963;46.052;14.544;2023-02-28T10:13:04;99183.03;;;1.43;97.71
56182;BME280;51963;46.052;14.544;2023-02-28T10:15:33;99193.16;;;1.72;96.24
56182;BME280;51963;46.052;14.544;2023-02-28T10:18:02;99192.09;;;1.74;96.41
56182;BME280;51963;46.052;14.544;2023-02-28T10:20:33;99192.38;;;1.58;97.53
56182;BME280;51963;46.052;14.544;2023-02-28T10:25:39;99192.53;;;1.44;97.68
56182;BME280;51963;46.052;14.544;2023-02-28T10:28:16;99195.03;;;1.70;97.83
56182;BME280;51963;46.052;14.544;2023-02-28T10:30:49;99188.00;;;1.83;97.78
56182;BME280;51963;46.052;14.544;2023-02-28T10:33:25;99185.84;;;1.77;97.32
56182;BME280;51963;46.052;14.544;2023-02-28T10:35:53;99182.00;;;1.94;96.29
56182;BME280;51963;46.052;14.544;2023-02-28T10:38:25;99180.19;;;1.83;95.37
56182;BME280;51963;46.052;14.544;2023-02-28T10:40:51;99189.34;;;2.25;93.94
56182;BME280;51963;46.052;14.544;2023-02-28T10:43:28;99192.91;;;2.24;95.01
56182;BME280;51963;46.052;14.544;2023-02-28T10:48:32;99183.44;;;2.34;93.31
56182;BME280;51963;46.052;14.544;2023-02-28T10:50:59;99184.47;;;2.31;95.12
56182;BME280;51963;46.052;14.544;2023-02-28T10:53:34;99174.88;;;2.32;92.80
56182;BME280;51963;46.052;14.544;2023-02-28T10:56:06;99170.63;;;2.31;92.40
56182;BME280;51963;46.052;14.544;2023-02-28T11:01:21;99170.31;;;2.11;93.08
56182;BME280;51963;46.052;14.544;2023-02-28T11:03:48;99153.38;;;1.81;93.00
56182;BME280;51963;46.052;14.544;2023-02-28T11:06:21;99167.28;;;2.29;90.77
56182;BME280;51963;46.052;14.544;2023-02-28T11:08:51;99163.28;;;2.47;91.17
56182;BME280;51963;46.052;14.544;2023-02-28T11:11:18;99147.38;;;2.39;90.52
56182;BME280;51963;46.052;14.544;2023-02-28T11:13:46;99164.41;;;2.68;88.31
56182;BME280;51963;46.052;14.544;2023-02-28T11:16:14;99164.75;;;2.86;90.17
56182;BME280;51963;46.052;14.544;2023-02-28T11:21:08;99158.38;;;2.31;90.00
56182;BME280;51963;46.052;14.544;2023-02-28T11:23:37;99155.00;;;2.65;87.46
56182;BME280;51963;46.052;14.544;2023-02-28T11:26:05;99146.91;;;2.34;87.88
56182;BME280;51963;46.052;14.544;2023-02-28T11:28:38;99152.59;;;2.39;89.10
56182;BME280;51963;46.052;14.544;2023-02-28T11:33:52;99141.25;;;2.86;85.27
56182;BME280;51963;46.052;14.544;2023-02-28T11:36:25;99136.72;;;2.99;85.06
56182;BME280;51963;46.052;14.544;2023-02-28T11:38:59;99146.69;;;3.05;84.21
56182;BME280;51963;46.052;14.544;2023-02-28T11:41:49;99147.75;;;2.57;87.01
56182;BME280;51963;46.052;14.544;2023-02-28T12:19:13;99098.41;;;3.76;81.59
56182;BME280;51963;46.052;14.544;2023-02-28T12:22:12;99104.25;;;3.69;81.38
56182;BME280;51963;46.052;14.544;2023-02-28T12:27:31;99091.28;;;4.52;78.62
56182;BME280;51963;46.052;14.544;2023-02-28T12:30:03;99091.03;;;4.34;76.78
56182;BME280;51963;46.052;14.544;2023-02-28T12:32:41;99087.28;;;4.58;78.02
56182;BME280;51963;46.052;14.544;2023-02-28T12:35:17;99095.63;;;4.73;76.08
56182;BME280;51963;46.052;14.544;2023-02-28T12:37:49;99094.19;;;4.59;76.17
56182;BME280;51963;46.052;14.544;2023-02-28T12:40:20;99089.13;;;4.36;76.66
56182;BME280;51963;46.052;14.544;2023-02-28T12:42:52;99079.59;;;4.66;75.95
56182;BME280;51963;46.052;14.544;2023-02-28T12:45:25;99078.53;;;4.78;75.65
56182;BME280;51963;46.052;14.544;2023-02-28T12:47:58;99084.06;;;4.75;76.13
56182;BME280;51963;46.052;14.544;2023-02-28T12:50:27;99074.19;;;4.26;74.77
56182;BME280;51963;46.052;14.544;2023-02-28T12:55:28;99059.59;;;4.24;75.59
56182;BME280;51963;46.052;14.544;2023-02-28T13:00:32;99068.94;;;4.48;75.30
56182;BME280;51963;46.052;14.544;2023-02-28T13:06:10;99068.16;;;4.05;76.32
56182;BME280;51963;46.052;14.544;2023-02-28T13:09:00;99074.91;;;3.86;76.30
56182;BME280;51963;46.052;14.544;2023-02-28T13:11:40;99067.13;;;3.75;78.49
56182;BME280;51963;46.052;14.544;2023-02-28T13:14:26;99069.84;;;3.52;78.68
56182;BME280;51963;46.052;14.544;2023-02-28T13:17:02;99062.94;;;3.51;79.23
56182;BME280;51963;46.052;14.544;2023-02-28T13:19:31;99067.16;;;3.42;77.58
56182;BME280;51963;46.052;14.544;2023-02-28T13:21:58;99062.09;;;3.62;78.03
56182;BME280;51963;46.052;14.544;2023-02-28T13:24:39;99067.69;;;3.57;79.50
56182;BME280;51963;46.052;14.544;2023-02-28T13:29:41;99057.28;;;3.13;80.95
56182;BME280;51963;46.052;14.544;2023-02-28T13:34:35;99058.66;;;3.29;79.65
56182;BME280;51963;46.052;14.544;2023-02-28T13:39:55;99051.34;;;3.44;80.04
56182;BME280;51963;46.052;14.544;2023-02-28T13:47:45;99046.25;;;3.63;80.12
56182;BME280;51963;46.052;14.544;2023-02-28T13:55:34;99049.72;;;3.31;78.82
56182;BME280;51963;46.052;14.544;2023-02-28T13:58:33;99043.38;;;3.45;80.44
56182;BME280;51963;46.052;14.544;2023-02-28T14:07:08;99040.72;;;3.24;82.02
56182;BME280;51963;46.052;14.544;2023-02-28T14:09:56;99042.44;;;3.02;82.39
56182;BME280;51963;46.052;14.544;2023-02-28T14:12:55;99048.06;;;2.86;83.96
56182;BME280;51963;46.052;14.544;2023-02-28T14:15:40;99045.22;;;2.89;84.58
56182;BME280;51963;46.052;14.544;2023-02-28T14:18:18;99040.94;;;2.54;84.48
56182;BME280;51963;46.052;14.544;2023-02-28T14:20:45;99043.56;;;2.77;85.53
56182;BME280;51963;46.052;14.544;2023-02-28T14:25:59;99033.81;;;2.90;84.42
56182;BME280;51963;46.052;14.544;2023-02-28T14:28:51;99032.19;;;2.78;85.65
56182;BME280;51963;46.052;14.544;2023-02-28T14:37:20;99021.34;;;2.83;85.54
56182;BME280;51963;46.052;14.544;2023-02-28T14:39:50;99024.19;;;2.91;84.69
56182;BME280;51963;46.052;14.544;2023-02-28T14:42:30;99032.28;;;2.76;84.97
56182;BME280;51963;46.052;14.544;2023-02-28T14:44:56;99023.84;;;2.61;85.39
56182;BME280;51963;46.052;14.544;2023-02-28T14:47:25;99004.53;;;2.53;85.03
56182;BME280;51963;46.052;14.544;2023-02-28T14:49:53;99027.09;;;2.54;84.79
56182;BME280;51963;46.052;14.544;2023-02-28T14:52:24;99027.53;;;2.70;84.69
56182;BME280;51963;46.052;14.544;2023-02-28T14:54:58;99029.47;;;2.57;86.11
56182;BME280;51963;46.052;14.544;2023-02-28T14:57:30;99029.47;;;2.57;85.45
56182;BME280;51963;46.052;14.544;2023-02-28T15:02:49;99025.28;;;2.77;85.38
56182;BME280;51963;46.052;14.544;2023-02-28T15:07:47;99017.22;;;2.69;84.91
56182;BME280;51963;46.052;14.544;2023-02-28T15:10:21;99034.19;;;2.74;84.31
56182;BME280;51963;46.052;14.544;2023-02-28T15:12:59;98998.38;;;2.42;85.25
56182;BME280;51963;46.052;14.544;2023-02-28T15:20:51;99024.09;;;2.58;86.29
56182;BME280;51963;46.052;14.544;2023-02-28T15:23:20;99008.44;;;2.58;86.12
56182;BME280;51963;46.052;14.544;2023-02-28T15:25:48;99019.25;;;2.42;86.62
56182;BME280;51963;46.052;14.544;2023-02-28T15:28:19;99006.53;;;2.60;86.55
56182;BME280;51963;46.052;14.544;2023-02-28T15:30:56;99014.88;;;2.66;87.31